sensor_id;sensor_type;location;lat;lon;timestamp;pressure;altitude;pressure_sealevel;temperature;humidity
38466;BME280;24244;51.950;5.902;2024-02-26T00:01:04;99886.31;;;7.61;86.43
38466;BME280;24244;51.950;5.902;2024-02-26T00:03:31;99886.31;;;7.61;86.64
38466;BME280;24244;51.950;5.902;2024-02-26T00:06:02;99889.78;;;7.61;86.52
38466;BME280;24244;51.950;5.902;2024-02-26T00:08:29;99890.59;;;7.62;86.55
38466;BME280;24244;51.950;5.902;2024-02-26T00:10:56;99889.78;;;7.61;86.56
38466;BME280;24244;51.950;5.902;2024-02-26T00:13:24;99889.16;;;7.59;86.33
38466;BME280;24244;51.950;5.902;2024-02-26T00:15:51;99896.47;;;7.57;86.44
38466;BME280;24244;51.950;5.902;2024-02-26T00:18:17;99890.34;;;7.57;86.60
38466;BME280;24244;51.950;5.902;2024-02-26T00:20:44;99889.16;;;7.59;86.59
38466;BME280;24244;51.950;5.902;2024-02-26T00:23:11;99888.34;;;7.59;86.45
38466;BME280;24244;51.950;5.902;2024-02-26T00:25:41;99884.88;;;7.58;86.49
38466;BME280;24244;51.950;5.902;2024-02-26T00:28:10;99887.53;;;7.58;86.47
38466;BME280;24244;51.950;5.902;2024-02-26T00:30:38;99882.41;;;7.57;86.42
38466;BME280;24244;51.950;5.902;2024-02-26T00:33:05;99878.97;;;7.56;86.44
38466;BME280;24244;51.950;5.902;2024-02-26T00:35:32;99881.59;;;7.56;86.53
38466;BME280;24244;51.950;5.902;2024-02-26T00:37:58;99877.31;;;7.55;86.48
38466;BME280;24244;51.950;5.902;2024-02-26T00:40:27;99870.78;;;7.51;86.60
38466;BME280;24244;51.950;5.902;2024-02-26T00:42:54;99868.94;;;7.52;86.52
38466;BME280;24244;51.950;5.902;2024-02-26T00:45:21;99870.78;;;7.51;86.39
38466;BME280;24244;51.950;5.902;2024-02-26T00:47:49;99866.31;;;7.52;86.32
38466;BME280;24244;51.950;5.902;2024-02-26T00:50:16;99877.06;;;7.50;86.48
38466;BME280;24244;51.950;5.902;2024-02-26T00:52:43;99871.78;;;7.50;86.19
38466;BME280;24244;51.950;5.902;2024-02-26T00:55:10;99864.03;;;7.48;86.42
38466;BME280;24244;51.950;5.902;2024-02-26T00:57:37;99864.03;;;7.48;86.20
38466;BME280;24244;51.950;5.902;2024-02-26T01:00:05;99869.31;;;7.48;86.17
38466;BME280;24244;51.950;5.902;2024-02-26T01:02:32;99871.78;;;7.50;86.19
38466;BME280;24244;51.950;5.902;2024-02-26T01:05:00;99870.78;;;7.51;86.29
38466;BME280;24244;51.950;5.902;2024-02-26T01:07:26;99860.19;;;7.51;86.21
38466;BME280;24244;51.950;5.902;2024-02-26T01:09:53;99857.56;;;7.51;86.33
38466;BME280;24244;51.950;5.902;2024-02-26T01:12:20;99855.72;;;7.52;86.05
38466;BME280;24244;51.950;5.902;2024-02-26T01:14:47;99859.38;;;7.51;86.25
38466;BME280;24244;51.950;5.902;2024-02-26T01:17:14;99855.53;;;7.53;86.38
38466;BME280;24244;51.950;5.902;2024-02-26T01:19:41;99854.72;;;7.53;86.08
38466;BME280;24244;51.950;5.902;2024-02-26T01:22:09;99846.81;;;7.53;86.21
38466;BME280;24244;51.950;5.902;2024-02-26T01:24:36;99855.72;;;7.52;85.97
38466;BME280;24244;51.950;5.902;2024-02-26T01:27:03;99859.00;;;7.54;86.09
38466;BME280;24244;51.950;5.902;2024-02-26T01:29:30;99860.44;;;7.56;86.07
38466;BME280;24244;51.950;5.902;2024-02-26T01:31:57;99860.25;;;7.58;86.05
38466;BME280;24244;51.950;5.902;2024-02-26T01:34:24;99851.50;;;7.57;85.98
38466;BME280;24244;51.950;5.902;2024-02-26T01:36:51;99849.69;;;7.58;86.05
38466;BME280;24244;51.950;5.902;2024-02-26T01:39:19;99861.91;;;7.59;85.85
38466;BME280;24244;51.950;5.902;2024-02-26T01:41:46;99861.91;;;7.59;86.03
38466;BME280;24244;51.950;5.902;2024-02-26T01:44:12;99868.84;;;7.60;85.78
38466;BME280;24244;51.950;5.902;2024-02-26T01:46:42;99878.38;;;7.61;85.83
38466;BME280;24244;51.950;5.902;2024-02-26T01:49:11;99885.50;;;7.60;85.51
38466;BME280;24244;51.950;5.902;2024-02-26T01:51:41;99896.88;;;7.61;85.73
38466;BME280;24244;51.950;5.902;2024-02-26T01:54:08;99899.34;;;7.62;85.53
38466;BME280;24244;51.950;5.902;2024-02-26T01:56:37;99903.00;;;7.61;85.68
38466;BME280;24244;51.950;5.902;2024-02-26T01:59:06;99910.13;;;7.61;85.48
38466;BME280;24244;51.950;5.902;2024-02-26T02:01:35;99910.13;;;7.61;85.50
38466;BME280;24244;51.950;5.902;2024-02-26T02:04:03;99902.19;;;7.61;85.57
38466;BME280;24244;51.950;5.902;2024-02-26T02:06:30;99904.22;;;7.59;85.37
38466;BME280;24244;51.950;5.902;2024-02-26T02:08:57;99911.50;;;7.57;85.47
38466;BME280;24244;51.950;5.902;2024-02-26T02:11:24;99921.09;;;7.58;85.53
38466;BME280;24244;51.950;5.902;2024-02-26T02:13:52;99918.44;;;7.58;85.51
38466;BME280;24244;51.950;5.902;2024-02-26T02:16:19;99926.38;;;7.58;85.68
38466;BME280;24244;51.950;5.902;2024-02-26T02:18:46;99921.44;;;7.55;85.34
38466;BME280;24244;51.950;5.902;2024-02-26T02:21:14;99919.81;;;7.54;85.65
38466;BME280;24244;51.950;5.902;2024-02-26T02:23:41;99929.56;;;7.53;85.37
38466;BME280;24244;51.950;5.902;2024-02-26T02:26:13;99927.13;;;7.52;85.48
38466;BME280;24244;51.950;5.902;2024-02-26T02:28:40;99922.84;;;7.51;85.45
38466;BME280;24244;51.950;5.902;2024-02-26T02:31:07;99924.84;;;7.48;85.50
38466;BME280;24244;51.950;5.902;2024-02-26T02:33:34;99932.94;;;7.47;85.46
38466;BME280;24244;51.950;5.902;2024-02-26T02:36:01;99928.50;;;7.47;85.70
38466;BME280;24244;51.950;5.902;2024-02-26T02:38:29;99932.94;;;7.47;85.52
38466;BME280;24244;51.950;5.902;2024-02-26T02:40:58;99939.25;;;7.46;85.39
38466;BME280;24244;51.950;5.902;2024-02-26T02:43:25;99933.34;;;7.44;85.57
38466;BME280;24244;51.950;5.902;2024-02-26T02:45:52;99930.88;;;7.42;85.70
38466;BME280;24244;51.950;5.902;2024-02-26T02:48:19;99929.06;;;7.43;85.59
38466;BME280;24244;51.950;5.902;2024-02-26T02:50:46;99940.47;;;7.43;85.62
38466;BME280;24244;51.950;5.902;2024-02-26T02:53:13;99932.53;;;7.43;85.69
38466;BME280;24244;51.950;5.902;2024-02-26T02:55:41;99934.53;;;7.41;85.55
38466;BME280;24244;51.950;5.902;2024-02-26T02:58:08;99943.47;;;7.40;85.69
38466;BME280;24244;51.950;5.902;2024-02-26T03:00:35;99937.34;;;7.40;85.61
38466;BME280;24244;51.950;5.902;2024-02-26T03:03:02;99932.06;;;7.40;85.60
38466;BME280;24244;51.950;5.902;2024-02-26T03:05:28;99931.25;;;7.39;85.71
38466;BME280;24244;51.950;5.902;2024-02-26T03:07:55;99940.19;;;7.38;85.79
38466;BME280;24244;51.950;5.902;2024-02-26T03:10:22;99937.56;;;7.38;85.72
38466;BME280;24244;51.950;5.902;2024-02-26T03:12:50;99942.03;;;7.38;85.56
38466;BME280;24244;51.950;5.902;2024-02-26T03:15:17;99936.91;;;7.36;85.69
38466;BME280;24244;51.950;5.902;2024-02-26T03:17:44;99941.56;;;7.34;85.51
38466;BME280;24244;51.950;5.902;2024-02-26T03:20:11;99939.09;;;7.33;85.61
38466;BME280;24244;51.950;5.902;2024-02-26T03:22:38;99947.03;;;7.33;85.39
38466;BME280;24244;51.950;5.902;2024-02-26T03:25:06;99945.03;;;7.35;85.45
38466;BME280;24244;51.950;5.902;2024-02-26T03:27:33;99944.03;;;7.36;85.54
38466;BME280;24244;51.950;5.902;2024-02-26T03:30:01;99949.13;;;7.37;85.44
38466;BME280;24244;51.950;5.902;2024-02-26T03:32:29;99944.66;;;7.38;85.33
38466;BME280;24244;51.950;5.902;2024-02-26T03:34:56;99949.97;;;7.38;85.21
38466;BME280;24244;51.950;5.902;2024-02-26T03:37:22;99953.41;;;7.38;85.28
38466;BME280;24244;51.950;5.902;2024-02-26T03:39:49;99959.50;;;7.39;85.22
38466;BME280;24244;51.950;5.902;2024-02-26T03:42:16;99956.84;;;7.39;85.33
38466;BME280;24244;51.950;5.902;2024-02-26T03:44:43;99953.41;;;7.38;85.22
38466;BME280;24244;51.950;5.902;2024-02-26T03:47:11;99953.41;;;7.38;85.22
38466;BME280;24244;51.950;5.902;2024-02-26T03:49:38;99953.41;;;7.38;85.23
38466;BME280;24244;51.950;5.902;2024-02-26T03:52:05;99955.03;;;7.39;85.39
38466;BME280;24244;51.950;5.902;2024-02-26T03:54:31;99969.91;;;7.40;85.44
38466;BME280;24244;51.950;5.902;2024-02-26T03:56:58;99959.31;;;7.40;85.37
38466;BME280;24244;51.950;5.902;2024-02-26T03:59:25;99955.69;;;7.41;85.25
38466;BME280;24244;51.950;5.902;2024-02-26T04:01:53;99956.31;;;7.43;85.38
38466;BME280;24244;51.950;5.902;2024-02-26T04:04:21;99960.59;;;7.44;85.42
38466;BME280;24244;51.950;5.902;2024-02-26T04:06:48;99964.91;;;7.45;85.32
38466;BME280;24244;51.950;5.902;2024-02-26T04:09:15;99960.22;;;7.47;85.38
38466;BME280;24244;51.950;5.902;2024-02-26T04:11:42;99969.16;;;7.46;85.34
38466;BME280;24244;51.950;5.902;2024-02-26T04:14:11;99977.09;;;7.46;85.13
38466;BME280;24244;51.950;5.902;2024-02-26T04:16:39;99969.97;;;7.47;85.27
38466;BME280;24244;51.950;5.902;2024-02-26T04:19:05;99976.09;;;7.47;85.21
38466;BME280;24244;51.950;5.902;2024-02-26T04:21:35;99983.19;;;7.47;85.18
38466;BME280;24244;51.950;5.902;2024-02-26T04:24:02;99983.19;;;7.47;85.22
38466;BME280;24244;51.950;5.902;2024-02-26T04:26:30;99986.84;;;7.46;85.11
38466;BME280;24244;51.950;5.902;2024-02-26T04:28:57;99979.13;;;7.44;85.03
38466;BME280;24244;51.950;5.902;2024-02-26T04:31:23;99986.03;;;7.45;84.99
38466;BME280;24244;51.950;5.902;2024-02-26T04:33:50;99987.88;;;7.45;84.87
38466;BME280;24244;51.950;5.902;2024-02-26T04:36:17;99988.69;;;7.45;84.93
38466;BME280;24244;51.950;5.902;2024-02-26T04:38:46;99986.03;;;7.45;85.01
38466;BME280;24244;51.950;5.902;2024-02-26T04:41:13;99993.16;;;7.45;84.93
38466;BME280;24244;51.950;5.902;2024-02-26T04:43:40;99992.34;;;7.44;84.96
38466;BME280;24244;51.950;5.902;2024-02-26T04:46:08;99994.97;;;7.44;84.74
38466;BME280;24244;51.950;5.902;2024-02-26T04:48:35;99994.50;;;7.41;84.93
38466;BME280;24244;51.950;5.902;2024-02-26T04:51:03;99995.50;;;7.40;84.91
38466;BME280;24244;51.950;5.902;2024-02-26T04:53:29;99994.91;;;7.38;85.02
38466;BME280;24244;51.950;5.902;2024-02-26T04:55:58;100000.78;;;7.40;85.24
38466;BME280;24244;51.950;5.902;2024-02-26T04:58:25;99993.06;;;7.38;85.10
38466;BME280;24244;51.950;5.902;2024-02-26T05:00:51;99998.38;;;7.38;85.03
38466;BME280;24244;51.950;5.902;2024-02-26T05:03:18;99998.38;;;7.38;84.92
38466;BME280;24244;51.950;5.902;2024-02-26T05:05:45;100001.19;;;7.37;85.12
38466;BME280;24244;51.950;5.902;2024-02-26T05:08:12;100002.19;;;7.36;85.01
38466;BME280;24244;51.950;5.902;2024-02-26T05:10:39;100009.28;;;7.35;85.09
38466;BME280;24244;51.950;5.902;2024-02-26T05:13:09;100005.66;;;7.36;85.10
38466;BME280;24244;51.950;5.902;2024-02-26T05:15:36;100012.13;;;7.34;85.26
38466;BME280;24244;51.950;5.902;2024-02-26T05:18:03;100010.47;;;7.33;85.38
38466;BME280;24244;51.950;5.902;2024-02-26T05:20:30;100006.19;;;7.32;85.43
38466;BME280;24244;51.950;5.902;2024-02-26T05:22:58;100013.50;;;7.30;85.80
38466;BME280;24244;51.950;5.902;2024-02-26T05:25:25;100003.09;;;7.28;85.55
38466;BME280;24244;51.950;5.902;2024-02-26T05:27:52;100005.09;;;7.26;85.66
38466;BME280;24244;51.950;5.902;2024-02-26T05:30:20;100005.91;;;7.27;85.83
38466;BME280;24244;51.950;5.902;2024-02-26T05:32:47;100004.28;;;7.26;85.93
38466;BME280;24244;51.950;5.902;2024-02-26T05:35:14;100010.38;;;7.26;85.89
38466;BME280;24244;51.950;5.902;2024-02-26T05:37:41;100019.31;;;7.25;86.13
38466;BME280;24244;51.950;5.902;2024-02-26T05:40:09;100017.69;;;7.24;86.12
38466;BME280;24244;51.950;5.902;2024-02-26T05:42:35;100030.28;;;7.22;86.07
38466;BME280;24244;51.950;5.902;2024-02-26T05:45:03;100021.69;;;7.20;86.09
38466;BME280;24244;51.950;5.902;2024-02-26T05:47:34;100027.97;;;7.19;86.21
38466;BME280;24244;51.950;5.902;2024-02-26T05:50:01;100024.50;;;7.19;86.45
38466;BME280;24244;51.950;5.902;2024-02-26T05:52:28;100027.34;;;7.17;86.56
38466;BME280;24244;51.950;5.902;2024-02-26T05:54:56;100025.72;;;7.16;86.43
38466;BME280;24244;51.950;5.902;2024-02-26T05:57:23;100026.72;;;7.15;86.57
38466;BME280;24244;51.950;5.902;2024-02-26T05:59:50;100029.34;;;7.15;86.64
38466;BME280;24244;51.950;5.902;2024-02-26T06:02:17;100033.00;;;7.14;86.62
38466;BME280;24244;51.950;5.902;2024-02-26T06:04:45;100042.75;;;7.14;86.79
38466;BME280;24244;51.950;5.902;2024-02-26T06:07:13;100034.81;;;7.14;86.73
38466;BME280;24244;51.950;5.902;2024-02-26T06:09:40;100049.84;;;7.13;86.71
38466;BME280;24244;51.950;5.902;2024-02-26T06:12:07;100039.44;;;7.12;86.87
38466;BME280;24244;51.950;5.902;2024-02-26T06:14:33;100044.56;;;7.13;87.04
38466;BME280;24244;51.950;5.902;2024-02-26T06:17:00;100051.66;;;7.13;87.00
38466;BME280;24244;51.950;5.902;2024-02-26T06:19:27;100058.78;;;7.12;87.12
38466;BME280;24244;51.950;5.902;2024-02-26T06:21:55;100059.97;;;7.10;86.86
38466;BME280;24244;51.950;5.902;2024-02-26T06:24:22;100055.50;;;7.10;87.25
38466;BME280;24244;51.950;5.902;2024-02-26T06:26:49;100058.16;;;7.10;87.39
38466;BME280;24244;51.950;5.902;2024-02-26T06:29:16;100061.78;;;7.09;87.41
38466;BME280;24244;51.950;5.902;2024-02-26T06:31:42;100066.25;;;7.08;87.49
38466;BME280;24244;51.950;5.902;2024-02-26T06:34:10;100076.00;;;7.08;87.55
38466;BME280;24244;51.950;5.902;2024-02-26T06:36:38;100078.81;;;7.06;87.55
38466;BME280;24244;51.950;5.902;2024-02-26T06:39:06;100075.53;;;7.04;87.59
38466;BME280;24244;51.950;5.902;2024-02-26T06:41:34;100077.34;;;7.04;87.71
38466;BME280;24244;51.950;5.902;2024-02-26T06:44:03;100075.72;;;7.03;87.88
38466;BME280;24244;51.950;5.902;2024-02-26T06:46:29;100075.72;;;7.03;87.77
38466;BME280;24244;51.950;5.902;2024-02-26T06:48:57;100082.84;;;7.02;87.79
38466;BME280;24244;51.950;5.902;2024-02-26T06:51:24;100095.03;;;7.03;87.94
38466;BME280;24244;51.950;5.902;2024-02-26T06:53:51;100096.88;;;7.03;87.90
38466;BME280;24244;51.950;5.902;2024-02-26T06:56:19;100103.97;;;7.02;87.94
38466;BME280;24244;51.950;5.902;2024-02-26T06:58:46;100098.03;;;7.00;88.13
38466;BME280;24244;51.950;5.902;2024-02-26T07:01:12;100103.50;;;6.99;88.11
38466;BME280;24244;51.950;5.902;2024-02-26T07:03:40;100109.78;;;6.98;88.18
38466;BME280;24244;51.950;5.902;2024-02-26T07:06:08;100102.22;;;6.95;88.10
38466;BME280;24244;51.950;5.902;2024-02-26T07:08:35;100109.50;;;6.93;88.34
38466;BME280;24244;51.950;5.902;2024-02-26T07:11:02;100110.50;;;6.92;88.52
38466;BME280;24244;51.950;5.902;2024-02-26T07:13:30;100113.13;;;6.92;88.49
38466;BME280;24244;51.950;5.902;2024-02-26T07:15:57;100117.44;;;6.93;88.63
38466;BME280;24244;51.950;5.902;2024-02-26T07:18:24;100114.78;;;6.93;88.59
38466;BME280;24244;51.950;5.902;2024-02-26T07:20:51;100125.19;;;6.94;88.54
38466;BME280;24244;51.950;5.902;2024-02-26T07:23:18;100121.34;;;6.97;88.76
38466;BME280;24244;51.950;5.902;2024-02-26T07:25:44;100130.91;;;6.98;88.64
38466;BME280;24244;51.950;5.902;2024-02-26T07:28:14;100138.00;;;6.97;88.73
38466;BME280;24244;51.950;5.902;2024-02-26T07:30:42;100134.53;;;6.97;88.68
38466;BME280;24244;51.950;5.902;2024-02-26T07:33:09;100139.00;;;6.96;88.76
38466;BME280;24244;51.950;5.902;2024-02-26T07:35:36;100139.00;;;6.96;88.80
38466;BME280;24244;51.950;5.902;2024-02-26T07:38:05;100145.31;;;6.95;88.97
38466;BME280;24244;51.950;5.902;2024-02-26T07:40:31;100151.78;;;6.93;88.99
38466;BME280;24244;51.950;5.902;2024-02-26T07:42:58;100144.66;;;6.93;89.26
38466;BME280;24244;51.950;5.902;2024-02-26T07:45:25;100147.31;;;6.93;89.26
38466;BME280;24244;51.950;5.902;2024-02-26T07:47:53;100153.03;;;6.97;89.39
38466;BME280;24244;51.950;5.902;2024-02-26T07:50:20;100153.88;;;6.97;89.40
38466;BME280;24244;51.950;5.902;2024-02-26T07:52:47;100160.81;;;6.98;89.58
38466;BME280;24244;51.950;5.902;2024-02-26T07:55:14;100153.03;;;6.97;89.45
38466;BME280;24244;51.950;5.902;2024-02-26T07:57:42;100168.28;;;6.95;89.52
38466;BME280;24244;51.950;5.902;2024-02-26T08:00:11;100163.97;;;6.94;89.57
38466;BME280;24244;51.950;5.902;2024-02-26T08:02:38;100154.25;;;6.94;89.66
38466;BME280;24244;51.950;5.902;2024-02-26T08:05:06;100158.69;;;6.94;89.79
38466;BME280;24244;51.950;5.902;2024-02-26T08:07:33;100158.69;;;6.94;89.89
38466;BME280;24244;51.950;5.902;2024-02-26T08:10:00;100169.28;;;6.94;89.87
38466;BME280;24244;51.950;5.902;2024-02-26T08:12:28;100168.06;;;6.96;89.85
38466;BME280;24244;51.950;5.902;2024-02-26T08:14:55;100172.56;;;6.96;90.06
38466;BME280;24244;51.950;5.902;2024-02-26T08:17:22;100169.72;;;6.97;89.91
38466;BME280;24244;51.950;5.902;2024-02-26T08:19:49;100178.84;;;6.95;90.00
38466;BME280;24244;51.950;5.902;2024-02-26T08:22:17;100178.34;;;6.91;90.15
38466;BME280;24244;51.950;5.902;2024-02-26T08:24:44;100180.19;;;6.91;90.19
38466;BME280;24244;51.950;5.902;2024-02-26T08:27:11;100185.63;;;6.89;90.57
38466;BME280;24244;51.950;5.902;2024-02-26T08:29:38;100185.00;;;6.87;90.36
38466;BME280;24244;51.950;5.902;2024-02-26T08:32:05;100195.56;;;6.87;90.67
38466;BME280;24244;51.950;5.902;2024-02-26T08:34:33;100189.28;;;6.88;90.90
38466;BME280;24244;51.950;5.902;2024-02-26T08:37:00;100202.31;;;6.90;90.96
38466;BME280;24244;51.950;5.902;2024-02-26T08:39:28;100198.84;;;6.89;90.75
38466;BME280;24244;51.950;5.902;2024-02-26T08:41:55;100197.69;;;6.92;90.98
38466;BME280;24244;51.950;5.902;2024-02-26T08:44:22;100207.25;;;6.93;91.14
38466;BME280;24244;51.950;5.902;2024-02-26T08:46:49;100197.03;;;6.90;90.87
38466;BME280;24244;51.950;5.902;2024-02-26T08:49:17;100207.78;;;6.88;91.18
38466;BME280;24244;51.950;5.902;2024-02-26T08:51:44;100203.66;;;6.86;91.35
38466;BME280;24244;51.950;5.902;2024-02-26T08:54:11;100207.13;;;6.86;91.29
38466;BME280;24244;51.950;5.902;2024-02-26T08:56:40;100208.63;;;6.89;91.17
38466;BME280;24244;51.950;5.902;2024-02-26T08:59:06;100208.13;;;6.85;91.22
38466;BME280;24244;51.950;5.902;2024-02-26T09:01:33;100209.94;;;6.85;91.49
38466;BME280;24244;51.950;5.902;2024-02-26T09:04:00;100216.88;;;6.86;91.50
38466;BME280;24244;51.950;5.902;2024-02-26T09:06:28;100219.50;;;6.86;91.53
38466;BME280;24244;51.950;5.902;2024-02-26T09:08:55;100228.91;;;6.88;91.65
38466;BME280;24244;51.950;5.902;2024-02-26T09:11:26;100234.22;;;6.88;91.63
38466;BME280;24244;51.950;5.902;2024-02-26T09:13:54;100233.56;;;6.86;91.80
38466;BME280;24244;51.950;5.902;2024-02-26T09:16:21;100231.72;;;6.87;91.78
38466;BME280;24244;51.950;5.902;2024-02-26T09:18:48;100239.28;;;6.90;91.70
38466;BME280;24244;51.950;5.902;2024-02-26T09:21:15;100247.03;;;6.91;91.70
38466;BME280;24244;51.950;5.902;2024-02-26T09:23:45;100249.69;;;6.91;91.78
38466;BME280;24244;51.950;5.902;2024-02-26T09:26:12;100253.16;;;6.92;91.82
38466;BME280;24244;51.950;5.902;2024-02-26T09:28:38;100250.50;;;6.92;92.00
38466;BME280;24244;51.950;5.902;2024-02-26T09:31:06;100255.13;;;6.90;91.87
38466;BME280;24244;51.950;5.902;2024-02-26T09:33:33;100260.44;;;6.90;92.13
38466;BME280;24244;51.950;5.902;2024-02-26T09:36:01;100269.38;;;6.89;91.97
38466;BME280;24244;51.950;5.902;2024-02-26T09:38:28;100267.53;;;6.89;92.14
38466;BME280;24244;51.950;5.902;2024-02-26T09:41:02;100263.72;;;6.92;92.24
38466;BME280;24244;51.950;5.902;2024-02-26T09:43:34;100267.34;;;6.91;92.30
38466;BME280;24244;51.950;5.902;2024-02-26T09:46:00;100271.66;;;6.92;92.19
38466;BME280;24244;51.950;5.902;2024-02-26T09:48:33;100277.59;;;6.94;92.35
38466;BME280;24244;51.950;5.902;2024-02-26T09:51:01;100286.50;;;6.93;92.35
38466;BME280;24244;51.950;5.902;2024-02-26T09:53:29;100285.53;;;6.94;92.50
38466;BME280;24244;51.950;5.902;2024-02-26T09:55:58;100288.00;;;6.95;92.55
38466;BME280;24244;51.950;5.902;2024-02-26T09:58:27;100291.47;;;6.96;92.57
38466;BME280;24244;51.950;5.902;2024-02-26T10:00:56;100289.59;;;6.96;92.54
38466;BME280;24244;51.950;5.902;2024-02-26T10:03:28;100302.03;;;6.96;92.54
38466;BME280;24244;51.950;5.902;2024-02-26T10:05:58;100298.72;;;6.94;92.64
38466;BME280;24244;51.950;5.902;2024-02-26T10:08:26;100298.38;;;6.97;92.81
38466;BME280;24244;51.950;5.902;2024-02-26T10:10:54;100299.84;;;6.99;92.80
38466;BME280;24244;51.950;5.902;2024-02-26T10:13:21;100312.22;;;6.99;92.52
38466;BME280;24244;51.950;5.902;2024-02-26T10:15:47;100316.84;;;6.97;92.77
38466;BME280;24244;51.950;5.902;2024-02-26T10:18:14;100321.50;;;6.95;92.64
38466;BME280;24244;51.950;5.902;2024-02-26T10:20:41;100318.22;;;6.93;92.96
38466;BME280;24244;51.950;5.902;2024-02-26T10:23:10;100321.31;;;6.96;93.01
38466;BME280;24244;51.950;5.902;2024-02-26T10:25:36;100326.44;;;6.98;92.82
38466;BME280;24244;51.950;5.902;2024-02-26T10:28:04;100334.84;;;7.01;93.00
38466;BME280;24244;51.950;5.902;2024-02-26T10:30:31;100337.31;;;7.03;92.91
38466;BME280;24244;51.950;5.902;2024-02-26T10:32:58;100338.94;;;7.04;92.80
38466;BME280;24244;51.950;5.902;2024-02-26T10:35:25;100338.94;;;7.04;92.83
38466;BME280;24244;51.950;5.902;2024-02-26T10:37:52;100338.63;;;7.07;93.07
38466;BME280;24244;51.950;5.902;2024-02-26T10:40:21;100355.28;;;7.07;92.77
38466;BME280;24244;51.950;5.902;2024-02-26T10:42:48;100346.53;;;7.07;93.04
38466;BME280;24244;51.950;5.902;2024-02-26T10:45:15;100360.41;;;7.09;92.93
38466;BME280;24244;51.950;5.902;2024-02-26T10:47:42;100367.34;;;7.10;92.89
38466;BME280;24244;51.950;5.902;2024-02-26T10:50:09;100373.25;;;7.12;93.06
38466;BME280;24244;51.950;5.902;2024-02-26T10:52:40;100379.22;;;7.14;93.03
38466;BME280;24244;51.950;5.902;2024-02-26T10:55:13;100387.59;;;7.18;92.89
38466;BME280;24244;51.950;5.902;2024-02-26T10:57:44;100390.06;;;7.19;92.97
38466;BME280;24244;51.950;5.902;2024-02-26T11:00:14;100394.53;;;7.19;92.89
38466;BME280;24244;51.950;5.902;2024-02-26T11:02:44;100395.19;;;7.21;93.06
38466;BME280;24244;51.950;5.902;2024-02-26T11:05:12;100407.59;;;7.20;92.92
38466;BME280;24244;51.950;5.902;2024-02-26T11:07:40;100407.59;;;7.20;93.08
38466;BME280;24244;51.950;5.902;2024-02-26T11:10:09;100417.50;;;7.18;92.97
38466;BME280;24244;51.950;5.902;2024-02-26T11:12:39;100411.91;;;7.13;93.06
38466;BME280;24244;51.950;5.902;2024-02-26T11:15:08;100425.94;;;7.14;93.24
38466;BME280;24244;51.950;5.902;2024-02-26T11:17:36;100427.78;;;7.13;93.21
38466;BME280;24244;51.950;5.902;2024-02-26T11:20:08;100430.25;;;7.15;93.34
38466;BME280;24244;51.950;5.902;2024-02-26T11:22:36;100437.03;;;7.17;93.26
38466;BME280;24244;51.950;5.902;2024-02-26T11:25:04;100435.38;;;7.16;93.28
38466;BME280;24244;51.950;5.902;2024-02-26T11:27:34;100430.25;;;7.15;93.32
38466;BME280;24244;51.950;5.902;2024-02-26T11:30:05;100433.06;;;7.13;93.06
38466;BME280;24244;51.950;5.902;2024-02-26T11:32:37;100436.69;;;7.12;93.26
38466;BME280;24244;51.950;5.902;2024-02-26T11:35:05;100442.97;;;7.11;93.59
38466;BME280;24244;51.950;5.902;2024-02-26T11:37:33;100445.59;;;7.11;93.55
38466;BME280;24244;51.950;5.902;2024-02-26T11:40:10;100439.34;;;7.12;93.75
38466;BME280;24244;51.950;5.902;2024-02-26T11:42:43;100439.16;;;7.14;93.51
38466;BME280;24244;51.950;5.902;2024-02-26T11:45:47;100440.97;;;7.13;93.42
38466;BME280;24244;51.950;5.902;2024-02-26T11:48:20;100444.63;;;7.12;93.58
38466;BME280;24244;51.950;5.902;2024-02-26T11:50:49;100434.88;;;7.13;93.51
38466;BME280;24244;51.950;5.902;2024-02-26T11:53:21;100442.16;;;7.11;93.59
38466;BME280;24244;51.950;5.902;2024-02-26T11:55:48;100441.97;;;7.12;93.63
38466;BME280;24244;51.950;5.902;2024-02-26T11:58:18;100442.81;;;7.13;93.63
38466;BME280;24244;51.950;5.902;2024-02-26T12:00:45;100449.91;;;7.12;93.59
38466;BME280;24244;51.950;5.902;2024-02-26T12:03:12;100448.09;;;7.13;93.64
38466;BME280;24244;51.950;5.902;2024-02-26T12:05:41;100442.81;;;7.13;93.71
38466;BME280;24244;51.950;5.902;2024-02-26T12:08:08;100455.84;;;7.14;93.75
38466;BME280;24244;51.950;5.902;2024-02-26T12:10:37;100454.50;;;7.18;93.93
38466;BME280;24244;51.950;5.902;2024-02-26T12:13:07;100457.97;;;7.19;93.76
38466;BME280;24244;51.950;5.902;2024-02-26T12:15:45;100464.25;;;7.18;93.67
38466;BME280;24244;51.950;5.902;2024-02-26T12:18:16;100463.63;;;7.16;93.74
38466;BME280;24244;51.950;5.902;2024-02-26T12:20:45;100468.91;;;7.16;93.83
38466;BME280;24244;51.950;5.902;2024-02-26T12:23:15;100471.38;;;7.17;93.79
38466;BME280;24244;51.950;5.902;2024-02-26T12:25:43;100477.00;;;7.14;93.78
38466;BME280;24244;51.950;5.902;2024-02-26T12:28:10;100476.00;;;7.15;93.95
38466;BME280;24244;51.950;5.902;2024-02-26T12:30:37;100482.75;;;7.18;93.85
38466;BME280;24244;51.950;5.902;2024-02-26T12:33:04;100490.50;;;7.19;93.74
38466;BME280;24244;51.950;5.902;2024-02-26T12:35:33;100488.53;;;7.21;94.03
38466;BME280;24244;51.950;5.902;2024-02-26T12:38:03;100490.03;;;7.24;94.12
38466;BME280;24244;51.950;5.902;2024-02-26T12:40:31;100490.84;;;7.24;93.85
38466;BME280;24244;51.950;5.902;2024-02-26T12:42:58;100496.13;;;7.24;93.74
38466;BME280;24244;51.950;5.902;2024-02-26T12:45:25;100500.75;;;7.22;93.98
38466;BME280;24244;51.950;5.902;2024-02-26T12:47:53;100509.69;;;7.21;93.99
38466;BME280;24244;51.950;5.902;2024-02-26T12:50:20;100506.03;;;7.22;93.90
38466;BME280;24244;51.950;5.902;2024-02-26T12:52:47;100509.34;;;7.24;93.94
38466;BME280;24244;51.950;5.902;2024-02-26T12:55:17;100516.94;;;7.27;94.17
38466;BME280;24244;51.950;5.902;2024-02-26T12:57:45;100517.75;;;7.28;93.95
38466;BME280;24244;51.950;5.902;2024-02-26T13:00:15;100518.56;;;7.28;94.05
38466;BME280;24244;51.950;5.902;2024-02-26T13:02:43;100522.88;;;7.29;94.02
38466;BME280;24244;51.950;5.902;2024-02-26T13:05:12;100519.25;;;7.30;93.83
38466;BME280;24244;51.950;5.902;2024-02-26T13:07:43;100526.34;;;7.30;94.06